Time;durP1;ratioP1;P1;durP2;ratioP2;P2;SDS_P1;SDS_P2;PMS_P1;PMS_P2;Temp;Humidity;BMP_temperature;BMP_pressure;BME280_temperature;BME280_humidity;BME280_pressure;Samples;Min_cycle;Max_cycle;Signal;HPM_P1;HPM_P2
2023/07/05 00:01:13;;;;;;;12.68;6.53;;;17.60;99.90;;;;;;5026969;28;20161;-70
2023/07/05 00:03:40;;;;;;;11.50;6.83;;;17.50;99.90;;;;;;5035593;28;20376;-69
2023/07/05 00:06:06;;;;;;;10.98;6.78;;;17.50;99.90;;;;;;5049747;28;20355;-68
2023/07/05 00:08:33;;;;;;;10.45;6.15;;;17.50;99.90;;;;;;5049789;28;20048;-71
2023/07/05 00:11:07;;;;;;;12.48;6.35;;;17.50;99.90;;;;;;5054072;28;20055;-69
2023/07/05 00:13:34;;;;;;;9.82;6.63;;;17.50;99.90;;;;;;5052903;28;20487;-69
2023/07/05 00:16:00;;;;;;;11.90;6.53;;;17.50;99.90;;;;;;5050311;28;20056;-69
2023/07/05 00:18:26;;;;;;;11.48;6.38;;;17.40;99.90;;;;;;5050236;28;20049;-69
2023/07/05 00:20:58;;;;;;;11.15;6.22;;;17.40;99.90;;;;;;5044796;28;20411;-70
2023/07/05 00:23:23;;;;;;;11.65;6.70;;;17.40;99.90;;;;;;5058413;28;20548;-69
2023/07/05 00:25:49;;;;;;;9.82;6.60;;;17.40;99.90;;;;;;5045152;28;20045;-69
2023/07/05 00:28:15;;;;;;;16.42;6.80;;;17.40;99.90;;;;;;5056098;28;20040;-70
2023/07/05 00:30:45;;;;;;;12.90;6.70;;;17.40;99.90;;;;;;5056191;28;20045;-70
2023/07/05 00:33:11;;;;;;;12.07;6.85;;;17.40;99.90;;;;;;5049909;28;20708;-70
2023/07/05 00:35:37;;;;;;;10.50;7.00;;;17.40;99.90;;;;;;5057880;28;20120;-72
2023/07/05 00:38:02;;;;;;;13.00;7.47;;;17.30;99.90;;;;;;5047901;28;20041;-69
2023/07/05 00:40:28;;;;;;;11.23;7.43;;;17.30;99.90;;;;;;5035063;28;20779;-69
2023/07/05 00:42:53;;;;;;;12.38;6.88;;;17.30;99.90;;;;;;5027367;28;20041;-69
2023/07/05 00:45:19;;;;;;;11.38;6.88;;;17.30;99.90;;;;;;5051512;28;20041;-70
2023/07/05 00:47:46;;;;;;;11.43;6.85;;;17.30;99.90;;;;;;5045695;28;20072;-69
2023/07/05 00:50:24;;;;;;;11.10;6.90;;;17.30;99.90;;;;;;5028992;28;20134;-69
2023/07/05 00:52:52;;;;;;;10.95;6.68;;;17.30;99.90;;;;;;5051085;28;20165;-71
2023/07/05 00:55:18;;;;;;;10.77;6.78;;;17.30;99.90;;;;;;5053489;28;20036;-69
2023/07/05 00:57:45;;;;;;;12.73;6.80;;;17.30;99.90;;;;;;5034846;28;20123;-71
2023/07/05 01:00:15;;;;;;;12.18;6.53;;;17.20;99.90;;;;;;5055270;28;20055;-70
2023/07/05 01:02:45;;;;;;;11.27;7.00;;;17.20;99.90;;;;;;5054062;28;20504;-70
2023/07/05 01:05:12;;;;;;;11.05;7.00;;;17.20;99.90;;;;;;5037062;28;20056;-69
2023/07/05 01:07:38;;;;;;;;;;;17.20;99.90;;;;;;5052773;28;20041;-70
2023/07/05 01:10:07;;;;;;;11.10;6.78;;;17.20;99.90;;;;;;5056602;28;20574;-72
2023/07/05 01:12:32;;;;;;;11.68;6.60;;;17.20;99.90;;;;;;5046029;28;20410;-69
2023/07/05 01:15:07;;;;;;;11.38;6.82;;;17.20;99.90;;;;;;5054725;28;20074;-70
2023/07/05 01:18:05;;;;;;;14.65;7.13;;;17.20;99.90;;;;;;5048859;28;20052;-70
2023/07/05 01:20:47;;;;;;;13.50;7.10;;;17.20;99.90;;;;;;5030864;28;20052;-70
2023/07/05 01:23:25;;;;;;;13.40;7.00;;;17.20;99.90;;;;;;5056213;28;20040;-70
2023/07/05 01:26:00;;;;;;;11.75;7.57;;;17.20;99.90;;;;;;5055203;28;20059;-70
2023/07/05 01:28:45;;;;;;;12.60;7.45;;;17.20;99.90;;;;;;5043914;28;20059;-70
2023/07/05 01:31:33;;;;;;;11.75;7.20;;;17.20;99.90;;;;;;5024111;28;20044;-69
2023/07/05 01:34:05;;;;;;;12.15;7.53;;;17.10;99.90;;;;;;5020501;28;20071;-69
2023/07/05 01:36:33;;;;;;;12.98;7.85;;;17.10;99.90;;;;;;5049277;28;20555;-70
2023/07/05 01:38:58;;;;;;;;;;;17.10;99.90;;;;;;5034786;28;20055;-70
2023/07/05 01:41:24;;;;;;;11.52;7.35;;;17.00;99.90;;;;;;5047250;28;19924;-73
2023/07/05 01:43:51;;;;;;;16.27;9.23;;;16.90;99.90;;;;;;5043281;28;20161;-69
2023/07/05 01:46:21;;;;;;;;;;;17.00;99.90;;;;;;5053915;28;20086;-70
2023/07/05 01:49:05;;;;;;;12.40;8.50;;;16.90;99.90;;;;;;5052738;28;19924;-70
2023/07/05 01:52:02;;;;;;;13.07;8.82;;;16.90;99.90;;;;;;5043067;28;20552;-69
2023/07/05 01:54:44;;;;;;;13.77;8.93;;;16.90;99.90;;;;;;5051753;28;20121;-69
2023/07/05 01:57:22;;;;;;;15.13;9.55;;;16.90;99.90;;;;;;5044841;28;20041;-69
2023/07/05 02:00:03;;;;;;;14.43;9.25;;;16.80;99.90;;;;;;5048493;28;20057;-70
2023/07/05 02:02:33;;;;;;;14.35;10.13;;;16.80;99.90;;;;;;5036685;28;20044;-69
2023/07/05 02:05:02;;;;;;;11.93;8.77;;;16.80;99.90;;;;;;5055679;28;20095;-70
2023/07/05 02:07:30;;;;;;;14.52;9.25;;;16.80;99.90;;;;;;5056594;28;20058;-69
2023/07/05 02:09:56;;;;;;;15.48;9.13;;;16.80;99.90;;;;;;5044487;28;20578;-70
2023/07/05 02:12:23;;;;;;;14.35;9.52;;;16.70;99.90;;;;;;5043732;28;20048;-69
2023/07/05 02:14:49;;;;;;;16.90;10.90;;;16.80;99.90;;;;;;5041355;28;20045;-70
2023/07/05 02:17:15;;;;;;;13.60;9.98;;;16.70;99.90;;;;;;5053139;28;20080;-71
2023/07/05 02:19:41;;;;;;;14.48;9.55;;;16.70;99.90;;;;;;5033313;28;20040;-69
2023/07/05 02:22:07;;;;;;;14.48;10.93;;;16.70;99.90;;;;;;5053366;28;20059;-70
2023/07/05 02:24:33;;;;;;;15.82;9.95;;;16.70;99.90;;;;;;5042149;28;20110;-71
2023/07/05 02:26:59;;;;;;;16.45;10.13;;;16.60;99.90;;;;;;5059152;28;20135;-70
2023/07/05 02:29:25;;;;;;;17.10;10.60;;;16.60;99.90;;;;;;5051483;28;20104;-71
2023/07/05 02:31:51;;;;;;;12.95;9.93;;;16.60;99.90;;;;;;5047261;28;20106;-71
2023/07/05 02:34:17;;;;;;;14.75;9.88;;;16.60;99.90;;;;;;5056865;28;20048;-70
2023/07/05 02:36:43;;;;;;;13.25;10.15;;;16.60;99.90;;;;;;5050112;28;20051;-70
2023/07/05 02:39:09;;;;;;;14.25;10.45;;;16.60;99.90;;;;;;5036837;28;20123;-71
2023/07/05 02:41:34;;;;;;;15.32;10.65;;;16.60;99.90;;;;;;5052907;28;20527;-72
2023/07/05 02:44:00;;;;;;;15.00;10.90;;;16.60;99.90;;;;;;5054165;28;20044;-72
2023/07/05 02:46:26;;;;;;;13.48;10.45;;;16.50;99.90;;;;;;5058353;28;20040;-73
2023/07/05 02:48:55;;;;;;;14.95;10.52;;;16.50;99.90;;;;;;5049463;28;20041;-72
2023/07/05 02:51:21;;;;;;;13.18;10.30;;;16.50;99.90;;;;;;5052820;28;20098;-70
2023/07/05 02:53:47;;;;;;;13.90;10.18;;;16.50;99.90;;;;;;5052235;28;20531;-71
2023/07/05 02:56:13;;;;;;;14.52;10.93;;;16.50;99.90;;;;;;5054680;28;20052;-71
2023/07/05 02:58:39;;;;;;;12.40;10.55;;;16.50;99.90;;;;;;5034350;28;20172;-70
2023/07/05 03:01:05;;;;;;;13.15;10.00;;;16.50;99.90;;;;;;5035361;28;20056;-70
2023/07/05 03:03:31;;;;;;;15.98;11.27;;;16.50;99.90;;;;;;5053009;28;20075;-70
2023/07/05 03:05:59;;;;;;;13.32;10.63;;;16.50;99.90;;;;;;5046912;28;20131;-71
2023/07/05 03:08:25;;;;;;;;;;;16.50;99.90;;;;;;5027346;28;20048;-71
2023/07/05 03:10:58;;;;;;;13.93;10.88;;;16.50;99.90;;;;;;5055503;28;19925;-72
2023/07/05 03:13:32;;;;;;;13.57;10.48;;;16.50;99.90;;;;;;5047816;28;20040;-70
2023/07/05 03:15:59;;;;;;;12.88;10.30;;;16.50;99.90;;;;;;5044300;28;20478;-70
2023/07/05 03:18:25;;;;;;;15.60;11.13;;;16.50;99.90;;;;;;5032336;28;20052;-70
2023/07/05 03:20:51;;;;;;;12.17;9.77;;;16.50;99.90;;;;;;5032410;28;20097;-72
2023/07/05 03:23:17;;;;;;;12.30;9.95;;;16.50;99.90;;;;;;5047088;28;20052;-71
2023/07/05 03:25:57;;;;;;;12.23;9.98;;;16.60;99.90;;;;;;5045906;28;20044;-70
2023/07/05 03:28:24;;;;;;;12.55;10.25;;;16.60;99.90;;;;;;5049512;28;20072;-70
2023/07/05 03:31:08;;;;;;;12.73;10.02;;;16.50;99.90;;;;;;5030538;28;20052;-70
2023/07/05 03:33:35;;;;;;;14.10;9.80;;;16.60;99.90;;;;;;5044772;28;20090;-70
2023/07/05 03:36:13;;;;;;;12.65;9.82;;;16.60;99.90;;;;;;5045919;28;20667;-71
2023/07/05 03:38:39;;;;;;;11.38;9.73;;;16.60;99.90;;;;;;5052597;28;20033;-71
2023/07/05 03:41:13;;;;;;;13.18;9.98;;;16.60;99.90;;;;;;5032081;28;20044;-70
2023/07/05 03:43:41;;;;;;;13.85;9.82;;;16.60;99.90;;;;;;5031762;28;20071;-70
2023/07/05 03:46:10;;;;;;;14.27;10.02;;;16.60;99.90;;;;;;5049149;28;20052;-70
2023/07/05 03:48:38;;;;;;;15.50;9.88;;;16.60;99.90;;;;;;5055541;28;20060;-71
2023/07/05 03:51:04;;;;;;;14.63;9.43;;;16.60;99.90;;;;;;5052263;28;20080;-71
2023/07/05 03:53:33;;;;;;;11.93;9.30;;;16.60;99.90;;;;;;5037306;28;20040;-69
2023/07/05 03:56:04;;;;;;;12.18;9.43;;;16.60;99.90;;;;;;5050228;28;20652;-70
2023/07/05 03:58:30;;;;;;;13.85;9.15;;;16.60;99.90;;;;;;5053901;28;20083;-72
2023/07/05 04:01:15;;;;;;;10.40;8.40;;;16.60;99.90;;;;;;5046248;28;20040;-72
2023/07/05 04:03:42;;;;;;;11.00;9.25;;;16.70;99.90;;;;;;5051669;28;20044;-74
2023/07/05 04:06:07;;;;;;;10.65;9.02;;;16.70;99.90;;;;;;5052576;28;20093;-71
2023/07/05 04:08:33;;;;;;;11.95;8.55;;;16.70;99.90;;;;;;5050858;28;20040;-72
2023/07/05 04:10:59;;;;;;;13.50;8.95;;;16.70;99.90;;;;;;5048830;28;20054;-71
2023/07/05 04:13:25;;;;;;;10.95;9.07;;;16.70;99.90;;;;;;5053359;28;20041;-73
2023/07/05 04:16:18;;;;;;;9.93;8.65;;;16.70;99.90;;;;;;5050237;28;20068;-75
2023/07/05 04:18:45;;;;;;;12.52;8.68;;;16.80;99.90;;;;;;5043880;28;20131;-72
2023/07/05 04:21:11;;;;;;;11.07;8.50;;;16.80;99.90;;;;;;5046651;28;20052;-72
2023/07/05 04:23:38;;;;;;;9.60;7.85;;;16.80;99.90;;;;;;5045435;28;20443;-70
2023/07/05 04:26:10;;;;;;;8.77;7.50;;;16.80;99.90;;;;;;5040127;28;20094;-70
2023/07/05 04:28:37;;;;;;;8.35;6.55;;;16.80;99.90;;;;;;5048470;28;20040;-72
2023/07/05 04:31:04;;;;;;;9.20;6.28;;;16.90;99.90;;;;;;5045634;28;20058;-72
2023/07/05 04:33:29;;;;;;;8.35;6.57;;;16.90;99.90;;;;;;5046009;28;20127;-71
2023/07/05 04:35:57;;;;;;;6.97;5.30;;;16.90;99.90;;;;;;5024715;28;20063;-72
2023/07/05 04:38:24;;;;;;;7.63;6.20;;;16.90;99.90;;;;;;5043232;28;20045;-74
2023/07/05 04:40:49;;;;;;;8.68;5.85;;;16.90;99.90;;;;;;5047020;28;20041;-71
2023/07/05 04:43:15;;;;;;;6.20;4.85;;;16.90;99.90;;;;;;5046724;28;20051;-74
2023/07/05 04:45:41;;;;;;;6.43;4.53;;;17.00;99.90;;;;;;5042610;28;21223;-71
2023/07/05 04:48:06;;;;;;;6.15;4.07;;;17.00;99.90;;;;;;5026278;28;20059;-71
2023/07/05 04:50:32;;;;;;;5.93;3.80;;;16.90;99.90;;;;;;5050213;28;21916;-71
2023/07/05 04:52:58;;;;;;;6.38;4.15;;;16.80;99.90;;;;;;5052601;28;20052;-71
2023/07/05 04:55:24;;;;;;;5.28;3.75;;;16.80;99.90;;;;;;5046605;28;20801;-72
2023/07/05 04:57:49;;;;;;;6.80;3.75;;;16.80;99.90;;;;;;5042538;28;20285;-72
2023/07/05 05:00:16;;;;;;;5.28;3.65;;;16.70;99.90;;;;;;5027090;28;20056;-73
2023/07/05 05:02:42;;;;;;;5.85;3.75;;;16.70;99.90;;;;;;5025679;28;20041;-70
2023/07/05 05:05:08;;;;;;;5.30;3.80;;;16.70;99.90;;;;;;5026710;28;21249;-72
2023/07/05 05:07:34;;;;;;;6.50;4.23;;;16.60;99.90;;;;;;5030535;28;20132;-70
2023/07/05 05:10:01;;;;;;;6.07;4.00;;;16.60;99.90;;;;;;5009865;28;20087;-69
2023/07/05 05:12:27;;;;;;;5.50;3.25;;;16.50;99.90;;;;;;5029046;28;20132;-70
2023/07/05 05:14:53;;;;;;;5.55;3.95;;;16.40;99.90;;;;;;5029641;28;20569;-73
2023/07/05 05:17:19;;;;;;;4.80;3.75;;;16.30;99.90;;;;;;5007069;28;20049;-70
2023/07/05 05:19:44;;;;;;;7.22;4.47;;;16.30;99.90;;;;;;5027010;28;20048;-70
2023/07/05 05:22:11;;;;;;;4.97;3.70;;;16.20;99.90;;;;;;5033730;28;20037;-70
2023/07/05 05:24:37;;;;;;;7.05;4.25;;;16.20;99.90;;;;;;5019915;28;20037;-70
2023/07/05 05:27:04;;;;;;;5.95;3.90;;;16.20;99.90;;;;;;5033477;28;20086;-70
2023/07/05 05:29:32;;;;;;;5.97;4.05;;;16.10;99.90;;;;;;5011184;28;20102;-69
2023/07/05 05:31:58;;;;;;;5.63;3.38;;;16.10;99.90;;;;;;5031727;28;20040;-67
2023/07/05 05:34:27;;;;;;;6.30;3.60;;;16.20;99.90;;;;;;5012146;28;20106;-70
2023/07/05 05:36:53;;;;;;;4.47;3.55;;;16.20;99.90;;;;;;5024410;28;20047;-69
2023/07/05 05:39:24;;;;;;;6.35;4.28;;;16.20;99.90;;;;;;5033255;28;20412;-69
2023/07/05 05:41:50;;;;;;;8.35;4.28;;;16.30;99.90;;;;;;5001935;28;20884;-70
2023/07/05 05:44:16;;;;;;;6.90;4.32;;;16.30;99.90;;;;;;5023537;28;20127;-70
2023/07/05 05:46:41;;;;;;;8.70;4.13;;;16.30;99.90;;;;;;5028360;28;20048;-69
2023/07/05 05:49:07;;;;;;;6.35;4.13;;;16.40;99.90;;;;;;5023929;28;20041;-69
2023/07/05 05:51:33;;;;;;;8.25;3.88;;;16.40;99.90;;;;;;5019101;28;20045;-69
2023/07/05 05:53:58;;;;;;;7.00;3.90;;;16.40;99.90;;;;;;5023040;28;20515;-69
2023/07/05 05:56:24;;;;;;;6.65;4.28;;;16.50;99.90;;;;;;5023596;28;20045;-69
2023/07/05 05:58:50;;;;;;;8.50;4.05;;;16.50;99.90;;;;;;5036495;28;20052;-69
2023/07/05 06:01:15;;;;;;;7.03;4.45;;;16.50;99.90;;;;;;5045539;28;20040;-70
2023/07/05 06:03:41;;;;;;;6.10;4.20;;;16.60;99.90;;;;;;5028285;28;20056;-69
2023/07/05 06:06:07;;;;;;;5.47;4.00;;;16.60;99.90;;;;;;5029626;28;20068;-69
2023/07/05 06:08:32;;;;;;;6.70;4.57;;;16.60;99.90;;;;;;5026297;28;20085;-69
2023/07/05 06:11:03;;;;;;;5.88;4.20;;;16.70;99.90;;;;;;5045881;28;20049;-68
2023/07/05 06:13:30;;;;;;;6.97;4.40;;;16.70;99.90;;;;;;5024796;28;20106;-69
2023/07/05 06:15:58;;;;;;;5.43;4.20;;;16.70;99.90;;;;;;5049661;28;20080;-69
2023/07/05 06:18:25;;;;;;;6.70;4.00;;;16.70;99.90;;;;;;5043888;28;20048;-69
2023/07/05 06:20:51;;;;;;;6.10;4.13;;;16.80;99.90;;;;;;5030162;28;20060;-69
2023/07/05 06:23:17;;;;;;;5.68;4.25;;;16.80;99.90;;;;;;5047353;28;22005;-69
2023/07/05 06:25:50;;;;;;;4.85;3.65;;;16.70;99.90;;;;;;5049164;28;20041;-69
2023/07/05 06:28:17;;;;;;;6.32;4.28;;;16.70;99.90;;;;;;5047426;28;20041;-71
2023/07/05 06:30:45;;;;;;;6.80;3.92;;;16.70;99.90;;;;;;5053104;28;20040;-69
2023/07/05 06:33:10;;;;;;;5.78;4.18;;;16.60;99.90;;;;;;5042916;28;20033;-69
2023/07/05 06:35:36;;;;;;;6.40;4.20;;;16.70;99.90;;;;;;5025443;28;20037;-69
2023/07/05 06:38:02;;;;;;;7.10;4.30;;;16.70;99.90;;;;;;5046004;28;20036;-69
2023/07/05 06:40:28;;;;;;;6.20;4.20;;;16.80;99.90;;;;;;5020368;28;20123;-69
2023/07/05 06:42:54;;;;;;;7.05;4.68;;;16.80;99.90;;;;;;5040718;28;20063;-69
2023/07/05 06:45:20;;;;;;;7.20;4.18;;;16.90;99.90;;;;;;5045563;28;21360;-69
2023/07/05 06:47:46;;;;;;;8.43;4.00;;;17.10;99.90;;;;;;5046397;28;20061;-69
2023/07/05 06:50:13;;;;;;;7.18;4.57;;;17.20;99.90;;;;;;5046587;28;20037;-67
2023/07/05 06:52:39;;;;;;;6.93;4.25;;;17.20;99.90;;;;;;5046873;28;20444;-71
2023/07/05 06:55:06;;;;;;;6.33;3.97;;;17.20;99.90;;;;;;5045448;28;20040;-70
2023/07/05 06:57:32;;;;;;;9.88;4.32;;;17.20;99.90;;;;;;5032201;28;20052;-71
2023/07/05 06:59:58;;;;;;;6.60;4.20;;;17.10;99.90;;;;;;5050405;28;20063;-71
2023/07/05 07:02:24;;;;;;;7.18;3.88;;;17.20;99.90;;;;;;5052681;28;20166;-71
2023/07/05 07:04:50;;;;;;;7.43;3.80;;;17.10;99.90;;;;;;5047204;28;20126;-72
2023/07/05 07:07:15;;;;;;;6.25;3.90;;;17.10;99.90;;;;;;5056710;28;20100;-71
2023/07/05 07:09:41;;;;;;;6.72;3.97;;;17.10;99.90;;;;;;5056418;28;20129;-74
2023/07/05 07:12:08;;;;;;;7.55;3.90;;;17.00;99.90;;;;;;5055413;28;20036;-72
2023/07/05 07:14:34;;;;;;;7.70;3.85;;;17.00;99.90;;;;;;5055760;28;20048;-71
2023/07/05 07:17:00;;;;;;;7.85;3.60;;;17.00;99.90;;;;;;5043232;28;20052;-70
2023/07/05 07:19:26;;;;;;;6.45;3.90;;;16.90;99.90;;;;;;5056625;28;20063;-73
2023/07/05 07:21:52;;;;;;;8.82;3.60;;;16.90;99.90;;;;;;5026324;28;20068;-71
2023/07/05 07:24:18;;;;;;;7.72;3.47;;;16.90;99.90;;;;;;5054988;28;20032;-71
2023/07/05 07:26:44;;;;;;;8.65;3.90;;;16.90;99.90;;;;;;5050667;28;20040;-71
2023/07/05 07:29:10;;;;;;;6.53;3.70;;;17.00;99.90;;;;;;5055113;28;20072;-72
2023/07/05 07:31:36;;;;;;;10.30;3.80;;;17.00;99.90;;;;;;5026909;28;20056;-73
2023/07/05 07:34:04;;;;;;;6.03;3.60;;;16.90;99.90;;;;;;5037473;28;20163;-71
2023/07/05 07:36:31;;;;;;;9.95;3.67;;;16.90;99.90;;;;;;5054435;28;20044;-74
2023/07/05 07:38:58;;;;;;;6.03;3.55;;;16.90;99.90;;;;;;5055567;28;20115;-71
2023/07/05 07:41:44;;;;;;;6.38;3.33;;;17.00;99.90;;;;;;5057586;28;20407;-72
2023/07/05 07:44:11;;;;;;;10.55;3.75;;;17.00;99.90;;;;;;5027516;28;20598;-71
2023/07/05 07:46:38;;;;;;;6.88;3.25;;;17.00;99.90;;;;;;5070162;28;20407;-72
2023/07/05 07:49:06;;;;;;;6.50;2.97;;;17.10;99.90;;;;;;5037258;28;20082;-72
2023/07/05 07:51:35;;;;;;;19.13;2.60;;;17.10;99.90;;;;;;5056758;28;20052;-72
2023/07/05 07:54:01;;;;;;;6.63;2.38;;;17.00;99.90;;;;;;5053124;28;20041;-71
2023/07/05 07:56:27;;;;;;;4.65;2.90;;;16.90;99.90;;;;;;5053820;28;20044;-72
2023/07/05 07:58:57;;;;;;;5.55;2.20;;;16.80;99.90;;;;;;5048245;28;20854;-71
2023/07/05 08:01:26;;;;;;;6.68;2.85;;;16.80;99.90;;;;;;5030701;28;20089;-73
2023/07/05 08:03:53;;;;;;;13.30;2.42;;;16.80;99.90;;;;;;5055357;28;22019;-71
2023/07/05 08:06:19;;;;;;;3.72;2.00;;;16.70;99.90;;;;;;5044809;28;20037;-71
2023/07/05 08:08:45;;;;;;;4.75;2.00;;;16.70;99.90;;;;;;5054878;28;20037;-72
2023/07/05 08:11:11;;;;;;;4.70;1.92;;;16.70;99.90;;;;;;5024482;28;20051;-71
2023/07/05 08:13:40;;;;;;;2.97;1.77;;;16.70;99.90;;;;;;5035073;28;20048;-70
2023/07/05 08:16:08;;;;;;;3.25;1.70;;;16.80;99.90;;;;;;5052083;28;20067;-70
2023/07/05 08:18:33;;;;;;;3.45;1.50;;;16.90;99.90;;;;;;5048811;28;20131;-71
2023/07/05 08:20:59;;;;;;;4.47;1.83;;;16.90;99.90;;;;;;5052189;28;20048;-70
2023/07/05 08:23:25;;;;;;;3.13;1.42;;;16.90;99.90;;;;;;5051516;28;20048;-70
2023/07/05 08:25:55;;;;;;;2.72;1.70;;;16.90;99.90;;;;;;5048426;28;20040;-70
2023/07/05 08:28:25;;;;;;;2.58;1.40;;;16.80;99.90;;;;;;5050200;28;20182;-68
2023/07/05 08:30:57;;;;;;;3.63;1.70;;;16.70;99.90;;;;;;5054338;28;20515;-68
2023/07/05 08:33:23;;;;;;;4.05;1.83;;;16.60;99.90;;;;;;5050925;28;20048;-68
2023/07/05 08:36:05;;;;;;;5.00;1.80;;;16.50;99.90;;;;;;5050840;28;20043;-68
2023/07/05 08:38:31;;;;;;;3.22;1.83;;;16.30;99.90;;;;;;5051063;28;20080;-70
2023/07/05 08:41:20;;;;;;;4.03;1.80;;;16.20;99.90;;;;;;5042213;28;20456;-70
2023/07/05 08:43:56;;;;;;;2.92;1.35;;;16.10;99.90;;;;;;5025218;28;20060;-69
2023/07/05 08:46:23;;;;;;;2.10;0.93;;;16.00;99.90;;;;;;5057110;28;20045;-70
2023/07/05 08:48:52;;;;;;;3.10;1.40;;;15.90;99.90;;;;;;5059314;28;20036;-69
2023/07/05 08:51:18;;;;;;;3.42;1.20;;;16.00;99.90;;;;;;5030717;28;20095;-70
2023/07/05 08:53:56;;;;;;;4.60;1.67;;;15.90;99.90;;;;;;5053413;28;20052;-70
2023/07/05 08:56:28;;;;;;;1.95;1.25;;;15.90;99.90;;;;;;5053350;28;20041;-69
2023/07/05 08:59:27;;;;;;;3.20;1.33;;;15.80;99.90;;;;;;5052273;28;20061;-70
2023/07/05 09:01:55;;;;;;;3.15;1.35;;;15.80;99.90;;;;;;5021570;28;20060;-71
2023/07/05 09:04:32;;;;;;;4.30;1.55;;;15.80;99.90;;;;;;5053810;28;20048;-71
2023/07/05 09:07:12;;;;;;;2.13;1.25;;;15.80;99.90;;;;;;5052982;28;20077;-72
2023/07/05 09:10:18;;;;;;;4.03;1.70;;;15.70;99.90;;;;;;5046841;28;20053;-70
2023/07/05 09:13:22;;;;;;;3.10;1.55;;;15.70;99.90;;;;;;5045755;28;20512;-68
2023/07/05 09:15:54;;;;;;;3.47;1.50;;;15.60;99.90;;;;;;5053965;28;20051;-67
2023/07/05 09:19:00;;;;;;;3.90;1.63;;;15.50;99.90;;;;;;5020076;28;20494;-69
2023/07/05 09:21:40;;;;;;;3.47;1.40;;;15.40;99.90;;;;;;5045402;28;20079;-69
2023/07/05 09:24:28;;;;;;;3.45;1.67;;;15.40;99.90;;;;;;5029019;28;20060;-71
2023/07/05 09:26:58;;;;;;;4.65;1.75;;;15.30;99.90;;;;;;5040279;28;20095;-71
2023/07/05 09:29:32;;;;;;;3.50;1.60;;;15.30;99.90;;;;;;5039024;28;20090;-72
2023/07/05 09:32:09;;;;;;;4.03;1.63;;;15.30;99.90;;;;;;5054191;28;20056;-72
2023/07/05 09:34:58;;;;;;;6.43;1.80;;;15.20;99.90;;;;;;5048513;28;20397;-73
2023/07/05 09:37:36;;;;;;;9.25;2.20;;;15.20;99.90;;;;;;5038714;28;20091;-70
2023/07/05 09:40:25;;;;;;;5.25;1.80;;;15.10;99.90;;;;;;5025825;28;20142;-73
2023/07/05 09:43:02;;;;;;;4.30;1.80;;;15.10;99.90;;;;;;5046832;28;20049;-71
2023/07/05 09:45:28;;;;;;;4.07;1.60;;;15.00;99.90;;;;;;5050667;28;20041;-70
2023/07/05 09:48:03;;;;;;;3.50;1.70;;;15.00;99.90;;;;;;5052074;28;20045;-69
2023/07/05 09:50:30;;;;;;;4.75;1.73;;;15.00;99.90;;;;;;5043650;28;20471;-69
2023/07/05 09:53:21;;;;;;;4.10;1.83;;;15.00;99.90;;;;;;5048103;28;20049;-70
2023/07/05 09:56:14;;;;;;;9.07;2.10;;;15.10;99.90;;;;;;5026468;28;20048;-69
2023/07/05 09:58:43;;;;;;;4.07;1.63;;;15.20;99.90;;;;;;5054131;28;20127;-70
2023/07/05 10:01:22;;;;;;;4.82;1.77;;;15.20;99.90;;;;;;5044247;28;20060;-69
2023/07/05 10:03:53;;;;;;;6.32;1.70;;;15.30;99.90;;;;;;5026782;28;20057;-70
2023/07/05 10:06:22;;;;;;;7.20;1.90;;;15.40;99.90;;;;;;5048183;28;20044;-70
2023/07/05 10:08:51;;;;;;;6.43;1.90;;;15.40;99.90;;;;;;5051547;28;20445;-69
2023/07/05 10:11:26;;;;;;;7.97;1.83;;;15.40;99.90;;;;;;5049859;28;20082;-69
2023/07/05 10:14:06;;;;;;;8.60;2.22;;;15.40;99.90;;;;;;5031554;28;20059;-70
2023/07/05 10:17:09;;;;;;;11.38;2.50;;;15.50;99.90;;;;;;5053731;28;20045;-71
2023/07/05 10:19:48;;;;;;;10.27;2.40;;;15.50;99.90;;;;;;5030162;28;20056;-71
2023/07/05 10:22:30;;;;;;;8.93;1.98;;;15.50;99.90;;;;;;5047589;28;20048;-72
2023/07/05 10:25:16;;;;;;;8.13;2.00;;;15.50;99.90;;;;;;5038066;28;20131;-71
2023/07/05 10:27:46;;;;;;;11.48;2.15;;;15.50;99.90;;;;;;5054714;28;20059;-74
2023/07/05 10:30:15;;;;;;;8.20;2.42;;;15.40;99.90;;;;;;5057268;28;20084;-71
2023/07/05 10:32:43;;;;;;;7.97;2.17;;;15.50;99.90;;;;;;5041994;28;20049;-70
2023/07/05 10:35:26;;;;;;;7.07;2.00;;;15.50;99.90;;;;;;5056707;28;20503;-75
2023/07/05 10:37:53;;;;;;;8.75;2.42;;;15.60;99.90;;;;;;5058559;28;20141;-71
2023/07/05 10:40:21;;;;;;;8.23;2.55;;;15.60;99.90;;;;;;5051333;28;20040;-73
2023/07/05 10:42:53;;;;;;;7.05;2.20;;;15.60;99.90;;;;;;5053180;28;20067;-70
2023/07/05 10:45:21;;;;;;;7.75;2.13;;;15.60;99.90;;;;;;5055507;28;20514;-69
2023/07/05 10:47:53;;;;;;;9.60;2.10;;;15.50;99.90;;;;;;5041562;28;20053;-68
2023/07/05 10:50:30;;;;;;;6.43;1.90;;;15.50;99.90;;;;;;5045654;28;20068;-69
2023/07/05 10:53:04;;;;;;;9.98;2.55;;;15.40;99.90;;;;;;5053014;28;20041;-69
2023/07/05 10:56:09;;;;;;;6.93;2.00;;;15.30;99.90;;;;;;5054237;28;20107;-67
2023/07/05 10:58:45;;;;;;;6.30;1.98;;;15.20;99.90;;;;;;5033529;28;20613;-69
2023/07/05 11:01:18;;;;;;;4.97;1.77;;;15.00;99.90;;;;;;5032786;28;20423;-69
2023/07/05 11:03:49;;;;;;;4.72;1.90;;;14.80;99.90;;;;;;5038176;28;20067;-67
2023/07/05 11:06:17;;;;;;;7.63;1.85;;;14.80;99.90;;;;;;5059659;28;20465;-71
2023/07/05 11:08:45;;;;;;;6.85;1.85;;;14.70;99.90;;;;;;5056448;28;20036;-68
2023/07/05 11:11:23;;;;;;;5.93;1.85;;;14.60;99.90;;;;;;5047648;28;20056;-69
2023/07/05 11:13:50;;;;;;;5.45;2.03;;;14.60;99.90;;;;;;5052891;28;20048;-69
2023/07/05 11:16:35;;;;;;;6.80;2.10;;;14.40;99.90;;;;;;5035865;28;20052;-69
2023/07/05 11:19:09;;;;;;;5.30;1.75;;;14.30;99.90;;;;;;5052665;28;20053;-70
2023/07/05 11:21:46;;;;;;;6.50;2.42;;;14.20;99.90;;;;;;5052546;28;21467;-69
2023/07/05 11:24:13;;;;;;;;;;;14.20;99.90;;;;;;5039667;28;20059;-67
2023/07/05 11:26:45;;;;;;;7.40;2.40;;;14.10;99.90;;;;;;5055894;28;20394;-68
2023/07/05 11:29:32;;;;;;;7.47;2.53;;;14.10;99.90;;;;;;5055390;28;20040;-68
2023/07/05 11:32:05;;;;;;;6.38;2.40;;;14.10;99.90;;;;;;5058554;28;20113;-69
2023/07/05 11:34:42;;;;;;;6.25;2.30;;;14.10;99.90;;;;;;5039054;28;20044;-67
2023/07/05 11:37:13;;;;;;;7.30;2.80;;;14.10;99.90;;;;;;5051116;28;20980;-68
2023/07/05 11:39:42;;;;;;;9.25;2.53;;;14.10;99.90;;;;;;5040311;28;20136;-68
2023/07/05 11:42:14;;;;;;;7.82;2.47;;;14.10;99.90;;;;;;5057494;28;20480;-68
2023/07/05 11:44:40;;;;;;;7.40;2.70;;;14.20;99.90;;;;;;5036531;28;20045;-70
2023/07/05 11:47:23;;;;;;;7.25;2.50;;;14.10;99.90;;;;;;5031367;28;20133;-69
2023/07/05 11:49:49;;;;;;;11.32;2.55;;;14.20;99.90;;;;;;5054235;28;20049;-69
2023/07/05 11:52:21;;;;;;;8.10;3.00;;;14.20;99.90;;;;;;5037227;28;20056;-69
2023/07/05 11:54:47;;;;;;;9.55;3.08;;;14.20;99.90;;;;;;5032031;28;20083;-69
2023/07/05 11:57:14;;;;;;;10.20;3.40;;;14.20;99.90;;;;;;5029407;28;20187;-68
2023/07/05 11:59:56;;;;;;;10.68;3.13;;;14.20;99.90;;;;;;5040346;28;20053;-68
2023/07/05 12:02:36;;;;;;;10.05;3.05;;;14.20;99.90;;;;;;5026334;28;20083;-68
2023/07/05 12:05:08;;;;;;;8.68;2.92;;;14.20;99.90;;;;;;5035184;28;20033;-67
2023/07/05 12:07:35;;;;;;;8.75;2.60;;;14.20;99.90;;;;;;5019382;28;20436;-69
2023/07/05 12:10:04;;;;;;;9.38;2.80;;;14.10;99.90;;;;;;5030497;28;20049;-68
2023/07/05 12:12:39;;;;;;;8.75;2.65;;;14.10;99.90;;;;;;5023366;28;20560;-68
2023/07/05 12:15:08;;;;;;;11.07;2.85;;;14.10;99.90;;;;;;5027758;28;20045;-70
2023/07/05 12:17:35;;;;;;;6.38;2.45;;;14.20;99.90;;;;;;5027215;28;20570;-67
2023/07/05 12:20:04;;;;;;;8.20;2.88;;;14.20;99.90;;;;;;5032064;28;20033;-69
2023/07/05 12:22:32;;;;;;;7.95;2.90;;;14.20;99.90;;;;;;5040571;28;20498;-67
2023/07/05 12:24:58;;;;;;;7.93;2.67;;;14.20;99.90;;;;;;5038430;28;20040;-68
2023/07/05 12:27:25;;;;;;;7.95;3.10;;;14.20;99.90;;;;;;5032389;28;20037;-67
2023/07/05 12:29:54;;;;;;;8.45;3.10;;;14.20;99.90;;;;;;5027561;28;20041;-68
2023/07/05 12:32:22;;;;;;;8.68;3.00;;;14.10;99.90;;;;;;5036138;28;20471;-68
2023/07/05 12:35:24;;;;;;;11.07;2.97;;;14.20;99.90;;;;;;5040211;28;20053;-67
2023/07/05 12:37:51;;;;;;;9.50;3.33;;;14.20;99.90;;;;;;5031154;28;20040;-68
2023/07/05 12:40:30;;;;;;;10.70;2.83;;;14.40;99.90;;;;;;5009305;28;20111;-69
2023/07/05 12:42:59;;;;;;;10.82;3.20;;;14.50;99.90;;;;;;5017871;28;20052;-67
2023/07/05 12:45:34;;;;;;;9.80;3.72;;;14.60;99.90;;;;;;5038215;28;20071;-67
2023/07/05 12:48:32;;;;;;;10.90;3.70;;;14.70;99.90;;;;;;5035143;28;20052;-67
2023/07/05 12:51:19;;;;;;;11.05;4.18;;;14.70;99.90;;;;;;4972939;28;20408;-68
2023/07/05 12:53:46;;;;;;;10.35;3.65;;;14.70;99.90;;;;;;5018476;28;20057;-68
2023/07/05 12:56:16;;;;;;;14.20;3.63;;;14.70;99.90;;;;;;5034019;28;20037;-68
2023/07/05 12:58:51;;;;;;;13.35;3.95;;;14.80;99.90;;;;;;5036711;28;20617;-67
2023/07/05 13:01:18;;;;;;;12.90;3.67;;;14.80;99.90;;;;;;5059454;28;20044;-68